Time;durP1;ratioP1;P1;durP2;ratioP2;P2;SDS_P1;SDS_P2;PMS_P1;PMS_P2;Temp;Humidity;BMP_temperature;BMP_pressure;BME280_temperature;BME280_humidity;BME280_pressure;Samples;Min_cycle;Max_cycle;Signal;HPM_P1;HPM_P2
2021/04/05 00:01:30;;;;;;;7.63;3.37;;;6.20;93.10;;;;;;5028346;28;21004;-49
2021/04/05 00:03:57;;;;;;;4.67;3.13;;;6.30;93.00;;;;;;5012626;28;20845;-49
2021/04/05 00:06:24;;;;;;;7.90;3.63;;;6.40;93.00;;;;;;5012635;28;20449;-49
2021/04/05 00:08:51;;;;;;;6.83;3.73;;;6.30;93.10;;;;;;5019605;28;20448;-50
2021/04/05 00:11:18;;;;;;;7.30;3.23;;;6.10;93.40;;;;;;5031927;28;20489;-49
2021/04/05 00:13:46;;;;;;;5.53;3.93;;;6.00;93.60;;;;;;5032200;28;20444;-50
2021/04/05 00:16:15;;;;;;;5.87;3.30;;;5.90;93.90;;;;;;5030844;28;20637;-49
2021/04/05 00:18:41;;;;;;;8.47;4.00;;;5.90;93.80;;;;;;5026087;28;20510;-49
2021/04/05 00:21:11;;;;;;;5.00;3.43;;;6.10;93.80;;;;;;5012276;28;20480;-49
2021/04/05 00:23:38;;;;;;;5.90;3.50;;;6.30;93.30;;;;;;5012212;28;20453;-49
2021/04/05 00:26:05;;;;;;;6.20;4.13;;;6.30;93.20;;;;;;5011901;28;20511;-49
2021/04/05 00:28:31;;;;;;;8.20;4.10;;;6.30;93.30;;;;;;5015608;28;20838;-50
2021/04/05 00:30:58;;;;;;;8.83;4.83;;;6.20;93.50;;;;;;5032045;28;20475;-49
2021/04/05 00:33:24;;;;;;;11.40;4.97;;;6.40;93.50;;;;;;5025792;28;20485;-49
2021/04/05 00:35:51;;;;;;;6.00;4.17;;;6.40;93.20;;;;;;5016848;28;20448;-49
2021/04/05 00:38:19;;;;;;;5.10;3.60;;;6.50;93.10;;;;;;5032045;28;20464;-49
2021/04/05 00:40:51;;;;;;;5.13;3.10;;;6.60;92.70;;;;;;5019704;28;20469;-49
2021/04/05 00:43:18;;;;;;;8.00;3.80;;;6.60;92.80;;;;;;5011821;28;20518;-49
2021/04/05 00:45:45;;;;;;;4.97;3.70;;;6.60;92.90;;;;;;5015802;28;20506;-49
2021/04/05 00:48:12;;;;;;;6.60;3.10;;;6.40;92.80;;;;;;5031877;28;20518;-49
2021/04/05 00:50:46;;;;;;;4.77;2.67;;;6.50;92.70;;;;;;5030670;28;20477;-49
2021/04/05 00:53:15;;;;;;;4.50;3.03;;;6.40;92.90;;;;;;5031418;28;20558;-49
2021/04/05 00:55:44;;;;;;;5.93;3.17;;;6.50;92.80;;;;;;5027739;28;20449;-49
2021/04/05 00:58:11;;;;;;;4.17;2.90;;;6.30;92.90;;;;;;5011814;28;20452;-50
2021/04/05 01:00:39;;;;;;;6.40;3.13;;;6.40;93.20;;;;;;5011528;28;20938;-49
2021/04/05 01:03:07;;;;;;;4.77;3.10;;;6.30;93.20;;;;;;5011479;28;20449;-49
2021/04/05 01:05:34;;;;;;;6.60;3.50;;;6.20;93.40;;;;;;5013423;28;20527;-50
2021/04/05 01:08:01;;;;;;;5.27;3.40;;;6.00;93.70;;;;;;5031322;28;20456;-49
2021/04/05 01:10:27;;;;;;;4.37;2.87;;;6.10;93.50;;;;;;5029283;28;20459;-49
2021/04/05 01:12:55;;;;;;;3.40;3.10;;;6.10;93.30;;;;;;5028420;28;20484;-49
2021/04/05 01:15:21;;;;;;;4.37;2.97;;;6.20;93.20;;;;;;5028710;28;20462;-49
2021/04/05 01:17:49;;;;;;;5.87;3.80;;;6.10;93.30;;;;;;5011971;28;20449;-49
2021/04/05 01:20:18;;;;;;;6.53;3.90;;;6.20;93.40;;;;;;5011437;28;20504;-51
2021/04/05 01:22:46;;;;;;;6.57;3.70;;;6.10;93.70;;;;;;5011225;28;21010;-49
2021/04/05 01:25:16;;;;;;;4.83;3.53;;;6.30;93.20;;;;;;5010970;28;20989;-50
2021/04/05 01:27:43;;;;;;;3.83;3.40;;;6.20;93.20;;;;;;5011144;28;20492;-49
2021/04/05 01:30:27;;;;;;;5.20;3.30;;;6.20;93.40;;;;;;5011331;28;20919;-49
2021/04/05 01:33:04;;;;;;;4.47;3.00;;;6.10;93.40;;;;;;5011121;28;20484;-50
2021/04/05 01:35:34;;;;;;;3.60;3.07;;;6.10;93.50;;;;;;5025306;28;20486;-50
2021/04/05 01:38:01;;;;;;;6.20;3.40;;;6.00;93.70;;;;;;5031028;28;20451;-49
2021/04/05 01:40:28;;;;;;;7.40;3.47;;;5.90;93.80;;;;;;5028993;28;20460;-49
2021/04/05 01:42:54;;;;;;;4.67;3.60;;;5.90;94.10;;;;;;5030901;28;20453;-49
2021/04/05 01:45:21;;;;;;;5.07;3.47;;;5.90;94.00;;;;;;5030672;28;20456;-49
2021/04/05 01:47:47;;;;;;;5.63;3.40;;;5.90;94.00;;;;;;5029984;28;20463;-49
2021/04/05 01:50:15;;;;;;;10.13;3.70;;;5.90;93.90;;;;;;5030771;28;20452;-49
2021/04/05 01:52:42;;;;;;;5.60;3.20;;;6.00;93.90;;;;;;5030161;28;21184;-49
2021/04/05 01:55:11;;;;;;;6.73;3.40;;;6.40;93.50;;;;;;5030435;28;20499;-49
2021/04/05 01:57:38;;;;;;;5.93;2.97;;;6.40;93.10;;;;;;5030403;28;20835;-49
2021/04/05 02:00:08;;;;;;;3.97;3.03;;;6.40;93.10;;;;;;5030406;28;20448;-49
2021/04/05 02:02:35;;;;;;;3.70;2.80;;;6.20;93.70;;;;;;5011132;28;20477;-49
2021/04/05 02:05:04;;;;;;;3.80;3.00;;;6.20;93.50;;;;;;5010608;28;20457;-49
2021/04/05 02:07:30;;;;;;;4.60;2.73;;;6.10;93.50;;;;;;5010656;28;20457;-50
2021/04/05 02:09:57;;;;;;;6.87;3.53;;;5.90;93.90;;;;;;5010720;28;20502;-50
2021/04/05 02:12:24;;;;;;;6.50;3.63;;;5.80;94.30;;;;;;5065296;22;20501;-50
2021/04/05 02:14:51;;;;;;;7.23;3.87;;;5.80;94.30;;;;;;5049889;28;20944;-50
2021/04/05 02:17:19;;;;;;;7.07;4.00;;;5.70;94.20;;;;;;5050658;28;21112;-49
2021/04/05 02:19:46;;;;;;;5.40;3.10;;;5.70;94.40;;;;;;5050498;28;20454;-50
2021/04/05 02:22:12;;;;;;;4.23;2.63;;;5.50;94.60;;;;;;5049942;28;20468;-51
2021/04/05 02:24:41;;;;;;;4.63;3.40;;;5.60;94.70;;;;;;5050480;28;20525;-50
2021/04/05 02:27:09;;;;;;;4.83;2.93;;;5.50;94.50;;;;;;5050351;28;20611;-50
2021/04/05 02:29:36;;;;;;;5.97;3.00;;;5.40;94.70;;;;;;5027890;28;20464;-50
2021/04/05 02:32:03;;;;;;;4.67;3.30;;;5.40;94.60;;;;;;5037331;28;20510;-51
2021/04/05 02:34:31;;;;;;;7.30;3.43;;;5.30;94.80;;;;;;5050355;28;20499;-50
2021/04/05 02:36:57;;;;;;;3.53;2.80;;;5.40;94.90;;;;;;5042383;28;20506;-50
2021/04/05 02:39:24;;;;;;;3.90;3.33;;;5.50;94.90;;;;;;5030646;28;20907;-50
2021/04/05 02:41:52;;;;;;;5.60;3.57;;;5.30;94.90;;;;;;5026998;28;20468;-51
2021/04/05 02:44:19;;;;;;;3.90;3.50;;;5.10;95.70;;;;;;5010985;28;20519;-50
2021/04/05 02:46:49;;;;;;;7.70;4.23;;;5.00;95.60;;;;;;5028586;28;20457;-50
2021/04/05 02:49:18;;;;;;;9.83;4.73;;;5.00;95.80;;;;;;5033664;28;20447;-50
2021/04/05 02:51:47;;;;;;;11.53;5.07;;;5.00;95.80;;;;;;5050609;28;20544;-50
2021/04/05 02:54:17;;;;;;;8.63;5.00;;;4.90;96.10;;;;;;5037574;28;20456;-50
2021/04/05 02:56:44;;;;;;;6.70;3.73;;;4.80;96.40;;;;;;5030378;28;20482;-51
2021/04/05 02:59:11;;;;;;;5.53;3.90;;;4.90;96.30;;;;;;5032834;28;20581;-50
2021/04/05 03:01:39;;;;;;;7.57;3.60;;;4.80;96.50;;;;;;5021252;28;20472;-50
2021/04/05 03:04:08;;;;;;;6.93;3.93;;;4.90;96.60;;;;;;5023024;28;20464;-50
2021/04/05 03:06:35;;;;;;;7.07;4.50;;;4.70;96.80;;;;;;5026850;28;20453;-51
2021/04/05 03:09:05;;;;;;;8.00;3.37;;;4.50;97.10;;;;;;5032909;28;20452;-51
2021/04/05 03:11:32;;;;;;;4.40;2.97;;;4.50;97.70;;;;;;5066065;28;20483;-50
2021/04/05 03:13:59;;;;;;;5.53;3.60;;;4.40;97.40;;;;;;5053632;28;20448;-51
2021/04/05 03:16:27;;;;;;;7.13;3.60;;;4.50;97.50;;;;;;5038009;28;20437;-51
2021/04/05 03:18:57;;;;;;;4.57;3.13;;;4.40;97.40;;;;;;5014504;28;20445;-50
2021/04/05 03:21:25;;;;;;;8.07;3.57;;;4.50;97.30;;;;;;5033111;28;20477;-51
2021/04/05 03:23:53;;;;;;;4.20;2.97;;;4.80;96.90;;;;;;5049033;28;20442;-51
2021/04/05 03:26:19;;;;;;;6.70;3.67;;;4.80;96.90;;;;;;5053456;28;20448;-51
2021/04/05 03:28:46;;;;;;;4.70;3.40;;;4.70;97.00;;;;;;5045358;28;20459;-50
2021/04/05 03:31:16;;;;;;;5.50;3.40;;;4.60;97.30;;;;;;5039640;28;20472;-50
2021/04/05 03:33:51;;;;;;;7.53;3.77;;;4.50;97.30;;;;;;5013860;28;20489;-51
2021/04/05 03:36:23;;;;;;;5.80;3.53;;;4.50;97.40;;;;;;5013557;28;20460;-49
2021/04/05 03:38:51;;;;;;;6.77;3.17;;;4.40;97.60;;;;;;5013985;28;20508;-50
2021/04/05 03:41:37;;;;;;;6.20;3.40;;;4.40;97.70;;;;;;5050156;28;21004;-51
2021/04/05 03:44:10;;;;;;;7.60;3.83;;;4.40;97.70;;;;;;5052762;28;20451;-50
2021/04/05 03:46:41;;;;;;;4.80;3.30;;;4.50;97.70;;;;;;5021596;28;20443;-51
2021/04/05 03:49:20;;;;;;;9.03;3.70;;;4.60;97.80;;;;;;5033520;28;20444;-50
2021/04/05 03:51:53;;;;;;;4.87;3.23;;;4.80;97.40;;;;;;5027100;28;20498;-50
2021/04/05 03:54:24;;;;;;;9.67;3.50;;;4.80;97.20;;;;;;5033089;28;20517;-50
2021/04/05 03:56:53;;;;;;;8.00;3.93;;;4.60;97.60;;;;;;5032888;28;20826;-51
2021/04/05 03:59:26;;;;;;;6.87;3.97;;;4.60;97.60;;;;;;5033483;28;20444;-51
2021/04/05 04:01:57;;;;;;;6.03;3.63;;;4.60;97.90;;;;;;5042259;28;20863;-51
2021/04/05 04:04:28;;;;;;;4.83;3.30;;;4.50;97.80;;;;;;5039618;28;20452;-51
2021/04/05 04:07:00;;;;;;;5.13;2.80;;;4.50;98.20;;;;;;5036959;28;20450;-50
2021/04/05 04:09:31;;;;;;;6.03;3.00;;;4.50;98.10;;;;;;5052417;28;20941;-49
2021/04/05 04:11:58;;;;;;;5.50;2.90;;;4.40;98.20;;;;;;5056661;28;20494;-50
2021/04/05 04:14:26;;;;;;;6.17;2.83;;;4.40;98.30;;;;;;5057132;28;20452;-50
2021/04/05 04:16:54;;;;;;;3.57;2.50;;;4.50;97.90;;;;;;5056858;28;20950;-51
2021/04/05 04:19:22;;;;;;;7.13;2.80;;;4.60;97.80;;;;;;5042235;28;20456;-51
2021/04/05 04:21:49;;;;;;;5.30;3.23;;;4.80;97.50;;;;;;5036305;28;20851;-50
2021/04/05 04:24:16;;;;;;;4.20;2.83;;;4.80;97.30;;;;;;5032566;28;20458;-50
2021/04/05 04:26:44;;;;;;;4.87;2.60;;;4.90;97.10;;;;;;5031589;28;20906;-50
2021/04/05 04:29:18;;;;;;;3.57;2.70;;;5.00;96.80;;;;;;5045514;28;20457;-50
2021/04/05 04:31:45;;;;;;;3.67;2.57;;;5.00;97.00;;;;;;5034962;28;20634;-50
2021/04/05 04:34:14;;;;;;;2.57;2.37;;;5.20;96.60;;;;;;5045413;28;20460;-51
2021/04/05 04:36:41;;;;;;;6.13;3.00;;;5.30;96.80;;;;;;5039724;28;20559;-50
2021/04/05 04:39:08;;;;;;;6.13;3.30;;;5.40;96.30;;;;;;5031635;28;20464;-51
2021/04/05 04:41:34;;;;;;;7.30;3.30;;;5.40;96.20;;;;;;5032194;28;20480;-51
2021/04/05 04:44:04;;;;;;;4.47;3.10;;;5.20;96.10;;;;;;5016422;28;20460;-50
2021/04/05 04:46:32;;;;;;;5.50;2.70;;;5.20;96.00;;;;;;5012570;28;20458;-50
2021/04/05 04:49:00;;;;;;;3.27;2.23;;;5.30;96.00;;;;;;5033996;28;20458;-50
2021/04/05 04:51:27;;;;;;;2.97;2.50;;;5.30;96.10;;;;;;5036000;28;20484;-51
2021/04/05 04:53:54;;;;;;;5.63;3.00;;;5.30;96.10;;;;;;5024008;28;20451;-50
2021/04/05 04:56:21;;;;;;;5.67;2.73;;;5.30;96.10;;;;;;5031983;28;20522;-50
2021/04/05 04:58:48;;;;;;;4.50;2.60;;;5.30;96.20;;;;;;5040833;28;20455;-51
2021/04/05 05:01:17;;;;;;;3.80;2.90;;;5.20;96.50;;;;;;5051666;28;20487;-51
2021/04/05 05:03:49;;;;;;;4.70;3.00;;;5.00;96.50;;;;;;5051604;28;20444;-50
2021/04/05 05:06:19;;;;;;;3.20;2.50;;;4.90;96.50;;;;;;5050009;28;20451;-50
2021/04/05 05:08:46;;;;;;;3.30;2.57;;;4.90;96.90;;;;;;5043220;28;20522;-51
2021/04/05 05:11:13;;;;;;;4.90;2.57;;;5.00;96.80;;;;;;5031626;28;20483;-50
2021/04/05 05:13:40;;;;;;;4.30;2.97;;;4.90;97.30;;;;;;5031680;28;20861;-51
2021/04/05 05:16:07;;;;;;;4.80;3.37;;;5.00;96.80;;;;;;5031352;28;20444;-51
2021/04/05 05:18:36;;;;;;;4.50;3.07;;;5.00;97.00;;;;;;5038087;28;20504;-51
2021/04/05 05:21:05;;;;;;;3.37;2.57;;;5.00;96.70;;;;;;5051645;28;20463;-50
2021/04/05 05:23:32;;;;;;;11.53;3.27;;;5.10;96.60;;;;;;5049835;28;20525;-50
2021/04/05 05:26:01;;;;;;;3.80;2.70;;;5.40;96.30;;;;;;5051102;28;20448;-51
2021/04/05 05:28:28;;;;;;;4.07;2.57;;;5.50;95.90;;;;;;5044078;28;20464;-50
2021/04/05 05:30:55;;;;;;;4.40;2.63;;;5.70;95.30;;;;;;5032434;28;20454;-52
2021/04/05 05:33:22;;;;;;;4.63;3.10;;;5.80;95.20;;;;;;5020760;28;20477;-50
2021/04/05 05:35:52;;;;;;;4.50;2.77;;;6.00;95.10;;;;;;5011582;28;20498;-50
2021/04/05 05:38:22;;;;;;;4.47;3.13;;;5.90;94.90;;;;;;5032517;28;20965;-50
2021/04/05 05:40:50;;;;;;;4.03;2.77;;;6.10;95.40;;;;;;5034255;28;20538;-50
2021/04/05 05:43:32;;;;;;;5.90;3.23;;;6.10;95.20;;;;;;5032107;28;20452;-50
2021/04/05 05:46:09;;;;;;;4.33;2.70;;;6.00;95.10;;;;;;5030986;28;20573;-51
2021/04/05 05:48:50;;;;;;;3.83;2.77;;;6.20;95.30;;;;;;5037547;28;20536;-51
2021/04/05 05:51:31;;;;;;;5.63;2.80;;;6.30;94.60;;;;;;5024189;28;20482;-51
2021/04/05 05:54:04;;;;;;;2.90;2.67;;;6.90;94.90;;;;;;5048686;28;20517;-51
2021/04/05 05:56:39;;;;;;;3.63;3.00;;;7.30;93.80;;;;;;5031778;28;20463;-51
2021/04/05 05:59:15;;;;;;;3.50;2.97;;;7.70;93.50;;;;;;5040683;28;20447;-51
2021/04/05 06:01:51;;;;;;;5.00;2.60;;;8.10;93.00;;;;;;5049001;28;21165;-51
2021/04/05 06:04:43;;;;;;;4.10;2.63;;;8.60;92.60;;;;;;5050585;28;20618;-51
2021/04/05 06:07:21;;;;;;;4.00;2.70;;;8.90;92.30;;;;;;5043211;28;20452;-51
2021/04/05 06:10:04;;;;;;;3.87;2.80;;;9.00;91.80;;;;;;5046145;28;20451;-52
2021/04/05 06:12:42;;;;;;;3.63;2.97;;;9.40;91.00;;;;;;5050454;28;20488;-51
2021/04/05 06:15:17;;;;;;;6.97;2.90;;;9.60;90.70;;;;;;5049150;28;20535;-51
2021/04/05 06:18:02;;;;;;;4.07;2.70;;;9.50;90.40;;;;;;5039644;28;20449;-51
2021/04/05 06:20:36;;;;;;;4.50;3.07;;;9.60;90.30;;;;;;5011188;28;20448;-51
2021/04/05 06:23:22;;;;;;;4.83;2.93;;;10.20;88.40;;;;;;5027960;28;20475;-51
2021/04/05 06:25:57;;;;;;;4.40;3.10;;;11.10;85.20;;;;;;5042934;28;20487;-51
2021/04/05 06:28:37;;;;;;;3.50;2.50;;;11.50;84.20;;;;;;5028425;28;20471;-51
2021/04/05 06:31:14;;;;;;;3.10;2.80;;;12.00;81.70;;;;;;5018847;28;20479;-52
2021/04/05 06:33:48;;;;;;;5.40;2.43;;;12.30;81.90;;;;;;5027436;28;20557;-51
2021/04/05 06:36:30;;;;;;;5.10;2.23;;;12.50;80.30;;;;;;5026543;28;20453;-50
2021/04/05 06:39:04;;;;;;;6.50;2.97;;;12.60;80.30;;;;;;5018270;28;20464;-51
2021/04/05 06:41:57;;;;;;;3.20;2.10;;;13.20;79.40;;;;;;5031676;28;21181;-52
2021/04/05 06:45:17;;;;;;;2.63;2.43;;;13.80;79.10;;;;;;5025964;28;20510;-52
2021/04/05 06:48:10;;;;;;;3.57;2.53;;;13.70;76.40;;;;;;4995274;28;20528;-53
2021/04/05 06:50:44;;;;;;;8.17;3.27;;;13.40;76.60;;;;;;5033166;28;20437;-52
2021/04/05 06:53:56;;;;;;;3.20;2.60;;;13.60;77.50;;;;;;5034481;28;20488;-51
2021/04/05 06:56:33;;;;;;;6.07;3.80;;;14.10;79.70;;;;;;5006492;28;20889;-52
2021/04/05 06:59:16;;;;;;;4.73;3.13;;;14.10;75.60;;;;;;5023461;28;20448;-52
2021/04/05 07:01:54;;;;;;;4.33;3.03;;;14.00;78.70;;;;;;5015394;28;20481;-52
2021/04/05 07:04:52;;;;;;;4.63;2.80;;;13.70;76.10;;;;;;5023470;28;20495;-51
2021/04/05 07:07:29;;;;;;;2.80;2.53;;;13.10;76.50;;;;;;5032678;28;21145;-50
2021/04/05 07:10:02;;;;;;;4.70;2.77;;;12.40;78.90;;;;;;5033496;28;20437;-52
2021/04/05 07:12:48;;;;;;;4.07;3.17;;;12.40;80.10;;;;;;5021461;28;20539;-52
2021/04/05 07:15:26;;;;;;;2.90;2.50;;;12.90;81.20;;;;;;5014144;28;20547;-51
2021/04/05 07:18:20;;;;;;;3.57;2.90;;;13.40;78.20;;;;;;5024221;28;20447;-51
2021/04/05 07:21:01;;;;;;;4.00;2.70;;;13.40;80.20;;;;;;5031905;28;20997;-51
2021/04/05 07:23:44;;;;;;;3.03;2.70;;;13.00;79.80;;;;;;5013945;28;20456;-51
2021/04/05 07:26:17;;;;;;;3.20;2.83;;;12.10;80.10;;;;;;5016977;28;20468;-51
2021/04/05 07:29:00;;;;;;;3.60;3.30;;;12.10;82.80;;;;;;5018070;28;20449;-52
2021/04/05 07:31:38;;;;;;;7.57;2.90;;;12.50;85.40;;;;;;5028946;28;20472;-51
2021/04/05 07:34:19;;;;;;;3.20;2.60;;;13.20;84.30;;;;;;5026349;28;20496;-51
2021/04/05 07:36:50;;;;;;;3.90;2.83;;;14.00;83.80;;;;;;5025063;28;20447;-51
2021/04/05 07:39:24;;;;;;;6.83;2.80;;;14.90;80.10;;;;;;5031928;28;20994;-51
2021/04/05 07:41:56;;;;;;;3.70;2.20;;;14.70;76.40;;;;;;5033907;28;20460;-52
2021/04/05 07:44:41;;;;;;;3.73;2.87;;;14.20;78.60;;;;;;5033606;28;20531;-51
2021/04/05 07:47:16;;;;;;;3.70;2.50;;;13.50;76.00;;;;;;5033716;28;20440;-51
2021/04/05 07:49:49;;;;;;;5.40;2.47;;;13.30;79.70;;;;;;5029319;28;21109;-52
2021/04/05 07:52:21;;;;;;;5.38;2.85;;;13.40;80.60;;;;;;5014765;28;20462;-51
2021/04/05 07:54:49;;;;;;;3.00;2.13;;;13.90;80.30;;;;;;5025233;28;20313;-51
2021/04/05 07:57:26;;;;;;;3.50;2.40;;;14.70;78.50;;;;;;5031007;28;20452;-52
2021/04/05 08:00:03;;;;;;;3.07;2.00;;;15.10;74.00;;;;;;5027466;28;20520;-51
2021/04/05 08:02:51;;;;;;;4.20;2.60;;;14.90;75.50;;;;;;5014050;28;20473;-51
2021/04/05 08:05:28;;;;;;;2.80;2.10;;;14.90;72.10;;;;;;5028140;28;20448;-50
2021/04/05 08:08:25;;;;;;;1.90;1.80;;;15.00;70.40;;;;;;5030451;28;20441;-52
2021/04/05 08:11:02;;;;;;;2.03;1.90;;;15.10;71.70;;;;;;5003618;28;20454;-52
2021/04/05 08:13:40;;;;;;;1.90;1.67;;;15.00;71.60;;;;;;5030224;28;20480;-52
2021/04/05 08:16:15;;;;;;;2.73;2.33;;;15.20;72.40;;;;;;5029719;28;20505;-51
2021/04/05 08:18:51;;;;;;;2.27;1.93;;;14.60;70.60;;;;;;5029479;28;20541;-51
2021/04/05 08:21:22;;;;;;;3.10;2.23;;;14.80;71.50;;;;;;5031025;28;20522;-52
2021/04/05 08:24:01;;;;;;;2.07;1.90;;;15.20;74.50;;;;;;5030703;28;20858;-51
2021/04/05 08:26:36;;;;;;;2.90;2.10;;;15.40;71.10;;;;;;5030749;28;20437;-52
2021/04/05 08:29:10;;;;;;;4.60;2.20;;;15.60;71.70;;;;;;5031036;28;20546;-51
2021/04/05 08:32:11;;;;;;;2.00;1.80;;;15.40;74.30;;;;;;5029525;28;20484;-52
2021/04/05 08:34:53;;;;;;;2.37;1.90;;;15.70;71.30;;;;;;5029421;28;20942;-52
2021/04/05 08:37:27;;;;;;;2.90;2.13;;;15.70;72.70;;;;;;5031438;28;20491;-51
2021/04/05 08:40:02;;;;;;;2.80;2.20;;;15.60;69.10;;;;;;5026498;28;20453;-52
2021/04/05 08:42:33;;;;;;;4.40;1.80;;;15.80;74.40;;;;;;5029557;28;20484;-51
2021/04/05 08:45:09;;;;;;;6.93;2.40;;;16.00;71.00;;;;;;5030935;28;20455;-51
2021/04/05 08:47:41;;;;;;;4.37;2.37;;;16.20;73.00;;;;;;5029975;28;20444;-51
2021/04/05 08:50:11;;;;;;;6.30;1.87;;;16.40;72.50;;;;;;5030922;28;20646;-51
2021/04/05 08:52:42;;;;;;;2.10;1.90;;;16.90;70.80;;;;;;5030513;28;20477;-51
2021/04/05 08:55:12;;;;;;;2.43;2.23;;;16.90;65.70;;;;;;5030190;28;20433;-51
2021/04/05 08:57:47;;;;;;;2.47;2.10;;;17.00;65.90;;;;;;5030959;28;20449;-52
2021/04/05 09:00:16;;;;;;;2.17;1.67;;;17.70;68.80;;;;;;5030348;28;20448;-51
2021/04/05 09:02:48;;;;;;;3.13;2.63;;;17.70;68.00;;;;;;5030107;28;20548;-52
2021/04/05 09:05:19;;;;;;;2.50;1.77;;;18.00;67.70;;;;;;5026639;28;20471;-52
2021/04/05 09:08:04;;;;;;;3.87;2.20;;;18.60;65.50;;;;;;5028954;28;20950;-52
2021/04/05 09:10:34;;;;;;;2.57;1.80;;;19.00;67.50;;;;;;5029995;28;20444;-51
2021/04/05 09:13:07;;;;;;;8.00;1.90;;;18.30;64.60;;;;;;5029307;28;20491;-52
2021/04/05 09:16:08;;;;;;;4.33;1.67;;;17.90;64.40;;;;;;5027165;28;20448;-52
2021/04/05 09:19:07;;;;;;;2.13;1.87;;;17.90;65.40;;;;;;5028632;28;20441;-51
2021/04/05 09:22:10;;;;;;;4.90;2.20;;;17.80;64.90;;;;;;5026322;28;21051;-51
2021/04/05 09:24:56;;;;;;;4.10;1.80;;;17.90;70.40;;;;;;5005779;28;20973;-52
2021/04/05 09:27:42;;;;;;;4.30;2.40;;;18.70;65.10;;;;;;5028929;28;20472;-51
2021/04/05 09:30:32;;;;;;;4.40;2.03;;;19.10;67.30;;;;;;5027110;28;21112;-51
2021/04/05 09:33:29;;;;;;;3.33;2.17;;;19.60;63.80;;;;;;5029061;28;20488;-52
2021/04/05 09:36:10;;;;;;;2.50;2.10;;;19.80;64.90;;;;;;5027167;28;20459;-52
2021/04/05 09:38:53;;;;;;;3.00;2.13;;;19.80;65.40;;;;;;5025066;28;20452;-52
2021/04/05 09:41:36;;;;;;;2.27;2.07;;;20.40;61.60;;;;;;5028627;28;20594;-51
2021/04/05 09:44:29;;;;;;;3.60;2.80;;;20.40;64.20;;;;;;5024738;28;20484;-52
2021/04/05 09:47:21;;;;;;;5.60;3.67;;;20.50;56.60;;;;;;5027840;28;20444;-52
2021/04/05 09:50:08;;;;;;;3.17;2.30;;;21.00;57.00;;;;;;5028658;28;20492;-53
2021/04/05 09:53:12;;;;;;;4.20;2.20;;;21.90;54.60;;;;;;5027545;28;20540;-53
2021/04/05 09:55:42;;;;;;;2.90;2.20;;;21.30;54.80;;;;;;5028029;28;20460;-52
2021/04/05 09:58:15;;;;;;;3.13;2.80;;;21.70;57.80;;;;;;5028497;28;20491;-53
2021/04/05 10:00:47;;;;;;;5.27;3.20;;;21.20;58.10;;;;;;5029470;28;20809;-52
2021/04/05 10:03:17;;;;;;;3.97;3.17;;;21.20;58.40;;;;;;5026461;28;20496;-52
2021/04/05 10:05:45;;;;;;;4.80;2.90;;;20.90;63.60;;;;;;5026146;28;20993;-52
2021/04/05 10:08:18;;;;;;;3.60;2.70;;;20.90;58.50;;;;;;5027953;28;20453;-52
2021/04/05 10:10:46;;;;;;;6.40;3.80;;;20.90;59.00;;;;;;5029585;28;20804;-52
2021/04/05 10:13:14;;;;;;;4.30;3.13;;;20.30;59.50;;;;;;5033520;28;20820;-52
2021/04/05 10:15:44;;;;;;;3.77;3.20;;;19.70;61.10;;;;;;5029301;28;20453;-53
2021/04/05 10:18:14;;;;;;;4.30;3.30;;;19.90;60.70;;;;;;5037660;28;20452;-52
2021/04/05 10:20:41;;;;;;;4.10;3.60;;;19.30;61.60;;;;;;5030061;28;20476;-52
2021/04/05 10:23:09;;;;;;;5.37;3.80;;;19.00;62.30;;;;;;5030106;28;20606;-53
2021/04/05 10:25:38;;;;;;;7.33;3.13;;;19.00;62.20;;;;;;5030758;28;20878;-52
2021/04/05 10:28:08;;;;;;;7.60;3.43;;;18.90;63.40;;;;;;5041152;28;20453;-52
2021/04/05 10:30:38;;;;;;;7.37;3.27;;;18.80;62.00;;;;;;5041732;28;20463;-52
2021/04/05 10:33:08;;;;;;;6.20;3.23;;;18.70;61.60;;;;;;5042638;28;20443;-52
2021/04/05 10:35:38;;;;;;;3.07;2.80;;;18.70;60.80;;;;;;5033420;28;20461;-51
2021/04/05 10:38:06;;;;;;;4.47;3.00;;;18.40;61.30;;;;;;5010589;28;20486;-52
2021/04/05 10:40:35;;;;;;;6.13;3.37;;;17.80;62.30;;;;;;5009684;28;20877;-51
2021/04/05 10:43:09;;;;;;;3.70;3.00;;;17.90;62.00;;;;;;5008786;28;21062;-52
2021/04/05 10:45:39;;;;;;;3.30;3.00;;;17.80;62.40;;;;;;5027348;28;20456;-52
2021/04/05 10:48:08;;;;;;;5.20;3.23;;;17.90;62.50;;;;;;5029161;28;20502;-51
2021/04/05 10:50:40;;;;;;;3.75;2.90;;;17.60;61.90;;;;;;5023483;28;20466;-51
2021/04/05 10:53:14;;;;;;;2.60;2.40;;;17.60;62.20;;;;;;5016565;28;20574;-52
2021/04/05 10:55:45;;;;;;;3.30;3.00;;;17.80;61.70;;;;;;5010254;28;20507;-51
2021/04/05 10:58:19;;;;;;;4.30;3.00;;;17.70;61.00;;;;;;5018998;28;20441;-52
2021/04/05 11:00:51;;;;;;;5.20;3.10;;;17.80;61.40;;;;;;5029956;28;20456;-52
2021/04/05 11:03:21;;;;;;;3.80;3.30;;;17.80;61.80;;;;;;5044152;28;20522;-51
2021/04/05 11:05:51;;;;;;;3.23;2.50;;;17.70;63.00;;;;;;5048141;28;20469;-51
2021/04/05 11:08:21;;;;;;;3.30;2.90;;;17.60;63.50;;;;;;5049835;28;20486;-50
2021/04/05 11:10:50;;;;;;;4.70;3.23;;;17.30;64.00;;;;;;5037062;28;20449;-51
2021/04/05 11:13:21;;;;;;;3.20;2.40;;;17.20;63.60;;;;;;5046753;28;20477;-51
2021/04/05 11:15:48;;;;;;;4.40;3.00;;;17.20;62.20;;;;;;5049040;28;20444;-51
2021/04/05 11:18:19;;;;;;;3.73;2.70;;;17.30;61.50;;;;;;5050141;28;20501;-51
2021/04/05 11:20:50;;;;;;;2.77;2.57;;;17.20;63.20;;;;;;5052769;28;20451;-51
2021/04/05 11:23:18;;;;;;;4.67;2.97;;;17.20;63.70;;;;;;5049926;28;20571;-51
2021/04/05 11:25:47;;;;;;;3.27;2.50;;;17.40;69.70;;;;;;5034406;28;21013;-51
2021/04/05 11:28:19;;;;;;;2.97;2.53;;;17.70;68.90;;;;;;5050686;28;20812;-52
2021/04/05 11:30:50;;;;;;;4.50;2.37;;;17.20;67.30;;;;;;5050152;28;20455;-51
2021/04/05 11:33:26;;;;;;;2.80;1.80;;;17.10;66.30;;;;;;5052079;28;20444;-51
2021/04/05 11:35:53;;;;;;;3.17;1.90;;;17.30;65.00;;;;;;5052882;28;20439;-51
2021/04/05 11:38:21;;;;;;;8.10;2.50;;;17.00;66.30;;;;;;5049407;28;20804;-51
2021/04/05 11:40:55;;;;;;;3.77;2.10;;;16.90;64.60;;;;;;5026456;28;20449;-50
2021/04/05 11:43:26;;;;;;;13.23;3.80;;;16.40;65.60;;;;;;5029469;28;20483;-51
2021/04/05 11:46:00;;;;;;;5.33;2.47;;;16.30;64.10;;;;;;5032647;28;20460;-50
2021/04/05 11:48:27;;;;;;;3.03;2.10;;;16.40;64.80;;;;;;5045557;28;20440;-51
2021/04/05 11:50:55;;;;;;;4.40;1.90;;;16.20;64.20;;;;;;5038958;28;20915;-51
2021/04/05 11:53:26;;;;;;;2.17;1.97;;;16.00;65.70;;;;;;5026316;28;20449;-52
2021/04/05 11:56:03;;;;;;;2.80;2.03;;;16.30;66.10;;;;;;5025836;28;20990;-52
2021/04/05 11:58:36;;;;;;;3.50;2.50;;;16.50;65.30;;;;;;5013741;28;20449;-51
2021/04/05 12:01:10;;;;;;;2.93;2.23;;;16.70;65.10;;;;;;5025829;28;20507;-51
2021/04/05 12:03:43;;;;;;;2.37;1.90;;;16.90;66.10;;;;;;5032659;28;20869;-51
2021/04/05 12:06:15;;;;;;;1.97;1.87;;;16.80;66.30;;;;;;5022407;28;20475;-52
2021/04/05 12:08:50;;;;;;;3.00;2.10;;;16.90;67.30;;;;;;5030881;28;20452;-53
2021/04/05 12:11:18;;;;;;;3.03;2.30;;;17.00;66.70;;;;;;5023185;28;20619;-51
2021/04/05 12:13:50;;;;;;;3.90;1.90;;;17.00;65.90;;;;;;5013295;28;20508;-51
2021/04/05 12:16:23;;;;;;;5.50;2.00;;;16.90;66.30;;;;;;5020955;28;20453;-52
2021/04/05 12:18:52;;;;;;;6.23;1.90;;;16.60;64.20;;;;;;5032788;28;20451;-51
2021/04/05 12:21:19;;;;;;;7.33;2.17;;;16.20;67.30;;;;;;5031098;28;20496;-51
2021/04/05 12:23:56;;;;;;;2.27;1.97;;;16.40;67.50;;;;;;5015634;28;20990;-51
2021/04/05 12:26:28;;;;;;;2.07;1.50;;;16.70;68.00;;;;;;5020047;28;20904;-52
2021/04/05 12:29:02;;;;;;;2.23;1.90;;;17.00;69.80;;;;;;5013519;28;20809;-51
2021/04/05 12:31:30;;;;;;;3.30;1.83;;;16.90;64.90;;;;;;5012729;28;20469;-51
2021/04/05 12:34:08;;;;;;;3.83;2.17;;;16.90;63.10;;;;;;5027007;28;20453;-51
2021/04/05 12:36:36;;;;;;;6.93;2.30;;;16.80;64.70;;;;;;5018259;28;20884;-51
2021/04/05 12:39:05;;;;;;;3.20;1.70;;;16.60;62.50;;;;;;5032779;28;20502;-51
2021/04/05 12:41:35;;;;;;;9.53;2.33;;;16.50;63.70;;;;;;5028041;28;20468;-52
2021/04/05 12:44:03;;;;;;;6.50;2.27;;;16.20;63.70;;;;;;5030277;28;20951;-51
2021/04/05 12:46:31;;;;;;;7.40;1.80;;;16.00;63.30;;;;;;5031684;28;20953;-51
2021/04/05 12:49:00;;;;;;;7.10;2.03;;;15.70;64.30;;;;;;5031771;28;20445;-51
2021/04/05 12:51:28;;;;;;;3.30;1.93;;;15.80;63.30;;;;;;5024002;28;20527;-51
2021/04/05 12:54:00;;;;;;;6.40;2.20;;;15.80;64.90;;;;;;5027851;28;21859;-50
2021/04/05 12:56:28;;;;;;;13.90;3.23;;;15.70;64.40;;;;;;5031886;28;20950;-51
2021/04/05 12:58:56;;;;;;;3.40;2.00;;;15.80;62.90;;;;;;5032034;28;20445;-51
2021/04/05 13:01:35;;;;;;;2.50;1.90;;;15.90;64.30;;;;;;5017578;28;20478;-51
2021/04/05 13:04:04;;;;;;;1.97;1.67;;;16.20;66.00;;;;;;5020170;28;20546;-51
2021/04/05 13:06:41;;;;;;;2.33;1.80;;;16.30;66.00;;;;;;5029491;28;20510;-51
2021/04/05 13:09:16;;;;;;;1.80;1.63;;;16.50;66.70;;;;;;5011796;28;20504;-52
2021/04/05 13:11:46;;;;;;;4.50;1.97;;;16.30;63.50;;;;;;5016199;28;20560;-51
2021/04/05 13:14:18;;;;;;;3.00;2.00;;;16.50;62.10;;;;;;5012545;28;20450;-51
2021/04/05 13:16:52;;;;;;;2.67;1.80;;;16.70;65.20;;;;;;5012354;28;20450;-51
2021/04/05 13:19:23;;;;;;;2.80;2.03;;;16.80;66.30;;;;;;5012070;28;20543;-51